createdAt,value
2023-05-03T00:01:17.619Z,90.50
2023-05-03T00:03:23.959Z,90.50
2023-05-03T00:05:29.699Z,90.70
2023-05-03T00:07:37.376Z,91.30
2023-05-03T00:09:43.136Z,91.70
2023-05-03T00:11:48.413Z,91.70
2023-05-03T00:13:53.481Z,91.60
2023-05-03T00:15:58.736Z,91.20
2023-05-03T00:18:03.861Z,91.10
2023-05-03T00:20:12.199Z,91.40
2023-05-03T00:22:17.758Z,91.50
2023-05-03T00:24:25.360Z,91.60
2023-05-03T00:26:31.445Z,91.40
2023-05-03T00:28:36.567Z,91.80
2023-05-03T00:30:41.722Z,91.70
2023-05-03T00:32:46.913Z,91.70
2023-05-03T00:34:56.722Z,92.30
2023-05-03T00:37:02.262Z,91.00
2023-05-03T00:39:07.366Z,91.70
2023-05-03T00:41:15.878Z,91.20
2023-05-03T00:43:21.143Z,91.40
2023-05-03T00:45:26.437Z,91.90
2023-05-03T00:47:31.901Z,92.00
2023-05-03T00:49:37.364Z,91.70
2023-05-03T00:51:43.749Z,91.60
2023-05-03T00:53:49.443Z,91.60
2023-05-03T00:55:56.676Z,91.80
2023-05-03T00:58:05.951Z,91.60
2023-05-03T01:00:13.693Z,91.70
2023-05-03T01:02:19.085Z,92.10
2023-05-03T01:04:26.192Z,92.10
2023-05-03T01:06:42.176Z,92.30
2023-05-03T01:08:53.662Z,92.00
2023-05-03T01:11:07.417Z,91.90
2023-05-03T01:13:25.480Z,93.10
2023-05-03T01:16:02.844Z,93.40
2023-05-03T01:18:17.936Z,92.90
2023-05-03T01:20:28.496Z,93.30
2023-05-03T01:22:49.619Z,93.00
2023-05-03T01:25:04.532Z,93.50
2023-05-03T01:27:09.636Z,93.50
2023-05-03T01:29:14.676Z,92.90
2023-05-03T01:31:26.787Z,92.80
2023-05-03T01:33:46.430Z,92.70
2023-05-03T01:36:00.323Z,92.90
2023-05-03T01:38:09.218Z,92.70
2023-05-03T01:40:19.962Z,92.80
2023-05-03T01:42:27.304Z,92.20
2023-05-03T01:44:33.318Z,92.60
2023-05-03T01:46:44.357Z,92.80
2023-05-03T01:48:50.878Z,92.70
2023-05-03T01:50:56.224Z,92.50
2023-05-03T01:53:02.933Z,92.70
2023-05-03T01:55:09.687Z,92.80
2023-05-03T01:57:17.349Z,92.60
2023-05-03T01:59:22.371Z,93.00
2023-05-03T02:01:27.717Z,92.80
2023-05-03T02:03:33.442Z,92.60
2023-05-03T02:05:38.623Z,92.60
2023-05-03T02:07:43.720Z,92.80
2023-05-03T02:09:49.045Z,93.20
2023-05-03T02:11:55.677Z,92.90
2023-05-03T02:14:03.812Z,93.00
2023-05-03T02:16:09.756Z,93.00
2023-05-03T02:18:16.882Z,92.80
2023-05-03T02:20:22.259Z,93.00
2023-05-03T02:22:27.514Z,92.90
2023-05-03T02:24:36.364Z,93.10
2023-05-03T02:26:41.463Z,93.00
2023-05-03T02:28:48.575Z,93.00
2023-05-03T02:30:56.209Z,93.20
2023-05-03T02:33:02.940Z,93.20
2023-05-03T02:35:09.896Z,93.30
2023-05-03T02:37:14.901Z,93.40
2023-05-03T02:39:20.454Z,92.90
2023-05-03T02:41:25.697Z,93.00
2023-05-03T02:43:31.940Z,92.80
2023-05-03T02:45:39.156Z,92.80
2023-05-03T02:47:47.149Z,92.70
2023-05-03T02:49:53.916Z,92.50
2023-05-03T02:51:59.486Z,92.20
2023-05-03T02:54:04.800Z,92.40
2023-05-03T02:56:13.002Z,92.70
2023-05-03T02:58:18.196Z,92.10
2023-05-03T03:00:23.787Z,92.40
2023-05-03T03:02:29.324Z,93.10
2023-05-03T03:04:37.453Z,93.40
2023-05-03T03:06:42.798Z,93.20
2023-05-03T03:08:47.837Z,93.00
2023-05-03T03:10:53.110Z,92.70
2023-05-03T03:12:58.324Z,93.00
2023-05-03T03:15:13.493Z,92.60
2023-05-03T03:17:18.669Z,93.10
2023-05-03T03:19:23.724Z,93.10
2023-05-03T03:21:32.901Z,93.40
2023-05-03T03:23:37.944Z,93.50
2023-05-03T03:25:45.153Z,93.40
2023-05-03T03:27:50.303Z,93.40
2023-05-03T03:29:55.566Z,93.40
2023-05-03T03:32:00.778Z,93.40
2023-05-03T03:34:06.149Z,93.20
2023-05-03T03:36:12.278Z,93.30
2023-05-03T03:38:23.229Z,93.20
2023-05-03T03:40:35.341Z,93.40
2023-05-03T03:42:40.761Z,93.50
2023-05-03T03:44:46.046Z,93.50
2023-05-03T03:46:51.766Z,93.80
2023-05-03T03:48:57.432Z,94.00
2023-05-03T03:51:05.332Z,94.20
2023-05-03T03:53:16.788Z,94.30
2023-05-03T03:55:25.352Z,94.20
2023-05-03T03:57:32.895Z,94.30
2023-05-03T03:59:37.952Z,94.30
2023-05-03T04:01:43.033Z,93.70
2023-05-03T04:03:49.797Z,93.80
2023-05-03T04:05:56.165Z,93.70
2023-05-03T04:08:01.388Z,93.50
2023-05-03T04:10:11.078Z,93.30
2023-05-03T04:12:20.996Z,93.80
2023-05-03T04:14:26.106Z,93.90
2023-05-03T04:16:31.814Z,94.10
2023-05-03T04:18:39.751Z,93.30
2023-05-03T04:20:46.864Z,93.30
2023-05-03T04:22:53.934Z,93.60
2023-05-03T04:25:02.898Z,93.20
2023-05-03T04:27:09.413Z,93.30
2023-05-03T04:29:20.458Z,93.60
2023-05-03T04:31:26.235Z,93.40
2023-05-03T04:33:32.936Z,93.50
2023-05-03T04:35:41.552Z,93.00
2023-05-03T04:37:50.557Z,93.40
2023-05-03T04:40:00.036Z,93.50
2023-05-03T04:42:05.116Z,93.20
2023-05-03T04:44:10.436Z,93.20
2023-05-03T04:46:18.718Z,93.40
2023-05-03T04:48:24.759Z,93.50
2023-05-03T04:50:30.226Z,93.50
2023-05-03T04:52:35.293Z,93.40
2023-05-03T04:54:40.350Z,93.60
2023-05-03T04:56:45.383Z,93.00
2023-05-03T04:58:55.913Z,93.00
2023-05-03T05:01:02.588Z,92.80
2023-05-03T05:03:12.472Z,92.80
2023-05-03T05:05:18.924Z,93.20
2023-05-03T05:07:26.123Z,93.40
2023-05-03T05:09:32.532Z,93.10
2023-05-03T05:11:40.572Z,93.10
2023-05-03T05:13:46.305Z,92.80
2023-05-03T05:15:51.508Z,92.80
2023-05-03T05:17:57.114Z,92.90
2023-05-03T05:20:07.358Z,93.10
2023-05-03T05:22:13.229Z,92.90
2023-05-03T05:24:25.132Z,92.70
2023-05-03T05:26:30.757Z,92.60
2023-05-03T05:28:36.587Z,92.30
2023-05-03T05:30:41.739Z,92.40
2023-05-03T05:32:46.887Z,92.50
2023-05-03T05:34:55.696Z,92.30
2023-05-03T05:37:07.513Z,92.00
2023-05-03T05:39:13.375Z,92.00
2023-05-03T05:41:19.174Z,92.00
2023-05-03T05:43:25.084Z,92.30
2023-05-03T05:45:30.351Z,92.10
2023-05-03T05:47:36.341Z,92.40
2023-05-03T05:49:42.045Z,92.30
2023-05-03T05:51:47.736Z,92.10
2023-05-03T05:53:55.931Z,91.70
2023-05-03T05:56:02.378Z,91.30
2023-05-03T05:58:12.109Z,91.50
2023-05-03T06:00:24.730Z,91.20
2023-05-03T06:02:29.896Z,91.10
2023-05-03T06:04:36.318Z,90.70
2023-05-03T06:06:41.613Z,90.70
2023-05-03T06:08:49.883Z,90.90
2023-05-03T06:10:57.589Z,90.60
2023-05-03T06:13:05.177Z,90.60
2023-05-03T06:15:12.965Z,90.60
2023-05-03T06:17:18.386Z,90.60
2023-05-03T06:19:24.870Z,89.50
2023-05-03T06:21:31.259Z,89.70
2023-05-03T06:23:37.952Z,90.10
2023-05-03T06:25:43.041Z,89.30
2023-05-03T06:27:50.866Z,89.30
2023-05-03T06:29:59.197Z,88.60
2023-05-03T06:32:04.940Z,88.70
2023-05-03T06:34:10.943Z,88.80
2023-05-03T06:36:18.639Z,88.40
2023-05-03T06:38:23.991Z,86.20
2023-05-03T06:40:29.285Z,87.20
2023-05-03T06:42:34.317Z,87.00
2023-05-03T06:45:00.411Z,86.90
2023-05-03T06:47:05.529Z,85.30
2023-05-03T06:49:11.421Z,86.30
2023-05-03T06:51:16.549Z,86.20
2023-05-03T06:53:21.569Z,85.30
2023-05-03T06:55:26.784Z,84.90
2023-05-03T06:57:31.854Z,83.00
2023-05-03T06:59:37.124Z,84.40
2023-05-03T07:01:44.765Z,82.10
2023-05-03T07:03:50.168Z,82.30
2023-05-03T07:05:55.811Z,82.80
2023-05-03T07:08:00.880Z,80.10
2023-05-03T07:10:06.656Z,80.80
2023-05-03T07:12:12.140Z,80.60
2023-05-03T07:14:17.229Z,77.60
2023-05-03T07:16:22.831Z,78.80
2023-05-03T07:18:30.903Z,74.80
2023-05-03T07:20:36.228Z,75.70
2023-05-03T07:22:41.287Z,76.20
2023-05-03T07:24:46.354Z,73.10
2023-05-03T07:26:51.368Z,74.90
2023-05-03T07:28:56.753Z,72.80
2023-05-03T07:31:02.540Z,68.10
2023-05-03T07:33:08.386Z,71.60
2023-05-03T07:35:16.881Z,71.50
2023-05-03T07:37:23.517Z,67.10
2023-05-03T07:39:28.678Z,70.80
2023-05-03T07:41:33.890Z,69.80
2023-05-03T07:43:38.974Z,70.10
2023-05-03T07:45:44.039Z,68.10
2023-05-03T07:47:49.436Z,65.00
2023-05-03T07:49:54.481Z,66.20
2023-05-03T07:52:02.144Z,66.00
2023-05-03T07:54:07.853Z,67.80
2023-05-03T07:56:13.393Z,68.10
2023-05-03T07:58:23.205Z,65.00
2023-05-03T08:00:33.921Z,64.70
2023-05-03T08:02:39.099Z,66.60
2023-05-03T08:04:44.372Z,65.80
2023-05-03T08:06:50.198Z,63.20
2023-05-03T08:08:57.867Z,64.00
2023-05-03T08:11:02.880Z,65.20
2023-05-03T08:13:08.777Z,60.50
2023-05-03T08:15:14.082Z,64.00
2023-05-03T08:17:19.398Z,63.60
2023-05-03T08:19:24.447Z,64.80
2023-05-03T08:21:30.417Z,62.00
2023-05-03T08:23:35.682Z,62.40
2023-05-03T08:25:43.611Z,59.00
2023-05-03T08:27:48.884Z,61.30
2023-05-03T08:29:53.924Z,62.70
2023-05-03T08:31:59.131Z,63.10
2023-05-03T08:34:05.135Z,63.20
2023-05-03T08:36:11.138Z,61.10
2023-05-03T08:38:17.326Z,62.00
2023-05-03T08:40:24.888Z,61.00
2023-05-03T08:42:33.959Z,63.40
2023-05-03T08:44:44.669Z,60.30
2023-05-03T08:46:49.797Z,57.50
2023-05-03T08:48:57.015Z,58.70
2023-05-03T08:51:07.269Z,59.50
2023-05-03T08:53:13.401Z,55.30
2023-05-03T08:55:19.281Z,59.60
2023-05-03T08:57:26.926Z,58.70
2023-05-03T08:59:34.559Z,57.50
2023-05-03T09:01:40.511Z,56.60
2023-05-03T09:03:53.335Z,57.20
2023-05-03T09:06:02.175Z,61.10
2023-05-03T09:08:10.026Z,57.80
2023-05-03T09:10:26.443Z,58.40
2023-05-03T09:12:41.443Z,54.80
2023-05-03T09:14:51.007Z,59.10
2023-05-03T09:16:56.332Z,56.10
2023-05-03T09:19:03.499Z,54.90
2023-05-03T09:21:08.995Z,59.80
2023-05-03T09:23:14.054Z,55.80
2023-05-03T09:25:19.443Z,54.20
2023-05-03T09:27:28.077Z,53.20
2023-05-03T09:29:36.256Z,55.90
2023-05-03T09:32:02.979Z,52.10
2023-05-03T09:34:25.290Z,54.00
2023-05-03T09:36:31.595Z,56.20
2023-05-03T09:38:39.403Z,57.00
2023-05-03T09:40:51.107Z,55.30
2023-05-03T09:43:09.968Z,54.50
2023-05-03T09:45:15.787Z,54.70
2023-05-03T09:47:25.653Z,55.90
2023-05-03T09:49:30.940Z,50.70
2023-05-03T09:51:36.733Z,54.60
2023-05-03T09:53:43.320Z,51.80
2023-05-03T09:55:50.968Z,51.40
2023-05-03T09:57:58.129Z,53.90
2023-05-03T10:00:03.759Z,52.60
2023-05-03T10:02:18.049Z,52.20
2023-05-03T10:04:29.807Z,54.00
2023-05-03T10:06:39.049Z,48.70
2023-05-03T10:08:49.674Z,49.10
2023-05-03T10:10:56.350Z,51.20
2023-05-03T10:13:02.498Z,54.40
2023-05-03T10:15:10.784Z,52.00
2023-05-03T10:17:29.259Z,51.20
2023-05-03T10:19:53.605Z,50.90
2023-05-03T10:22:08.154Z,49.70
2023-05-03T10:24:16.409Z,48.00
2023-05-03T10:26:22.706Z,50.40
2023-05-03T10:28:27.949Z,51.30
2023-05-03T10:30:35.196Z,49.40
2023-05-03T10:32:43.573Z,53.20
2023-05-03T10:34:58.721Z,49.80
2023-05-03T10:37:06.361Z,50.00
2023-05-03T10:39:17.927Z,51.30
2023-05-03T10:41:28.049Z,52.30
2023-05-03T10:43:47.242Z,48.20
2023-05-03T10:45:54.557Z,49.10
2023-05-03T10:48:23.242Z,47.50
2023-05-03T10:50:34.344Z,48.40
2023-05-03T10:52:50.742Z,48.50
2023-05-03T10:54:55.744Z,49.70
2023-05-03T10:57:01.937Z,50.20
2023-05-03T10:59:07.224Z,53.70
2023-05-03T11:01:14.773Z,48.40
2023-05-03T11:03:54.538Z,48.30
2023-05-03T11:06:03.326Z,45.70
2023-05-03T11:08:13.888Z,51.80
2023-05-03T11:10:20.587Z,45.10
2023-05-03T11:12:25.636Z,45.70
2023-05-03T11:14:30.672Z,53.10
2023-05-03T11:16:36.726Z,51.10
2023-05-03T11:18:42.428Z,46.90
2023-05-03T11:20:48.024Z,44.30
2023-05-03T11:22:56.112Z,45.50
2023-05-03T11:25:01.558Z,50.60
2023-05-03T11:27:07.964Z,41.60
2023-05-03T11:29:14.727Z,45.30
2023-05-03T11:31:19.792Z,43.20
2023-05-03T11:33:25.153Z,44.70
2023-05-03T11:35:33.357Z,45.40
2023-05-03T11:37:38.840Z,49.20
2023-05-03T11:39:47.992Z,46.90
2023-05-03T11:42:07.374Z,47.80
2023-05-03T11:44:17.579Z,43.70
2023-05-03T11:46:29.426Z,44.80
2023-05-03T11:48:35.532Z,43.10
2023-05-03T11:50:54.658Z,47.00
2023-05-03T11:53:00.114Z,43.60
2023-05-03T11:55:11.414Z,44.90
2023-05-03T11:57:17.478Z,43.30
2023-05-03T11:59:22.769Z,44.40
2023-05-03T12:01:29.982Z,46.40
2023-05-03T12:03:36.800Z,43.80
2023-05-03T12:05:44.363Z,48.60
2023-05-03T12:07:50.611Z,43.40
2023-05-03T12:10:10.658Z,46.40
2023-05-03T12:12:30.230Z,46.60
2023-05-03T12:14:59.856Z,44.00
2023-05-03T12:17:05.191Z,49.00
2023-05-03T12:19:12.475Z,47.40
2023-05-03T12:23:28.795Z,42.70
2023-05-03T12:25:38.771Z,43.90
2023-05-03T12:28:00.040Z,43.00
2023-05-03T12:30:17.538Z,43.60
2023-05-03T12:32:23.402Z,45.30
2023-05-03T12:34:34.933Z,44.30
2023-05-03T12:36:43.788Z,46.20
2023-05-03T12:38:56.283Z,44.90
2023-05-03T12:41:02.287Z,42.20
2023-05-03T12:43:10.836Z,44.00
2023-05-03T12:45:17.713Z,44.70
2023-05-03T12:47:28.910Z,42.60
2023-05-03T12:49:37.990Z,48.30
2023-05-03T12:51:49.171Z,44.10
2023-05-03T12:54:01.976Z,44.10
2023-05-03T12:56:12.990Z,40.40
2023-05-03T13:00:35.557Z,40.80
2023-05-03T13:03:21.092Z,42.40
2023-05-03T13:05:13.530Z,36.70
2023-05-03T13:07:29.649Z,37.00
2023-05-03T13:10:12.070Z,35.20
2023-05-03T13:12:02.779Z,37.70
2023-05-03T13:14:14.289Z,35.50
2023-05-03T13:16:20.136Z,40.90
2023-05-03T13:18:26.104Z,43.30
2023-05-03T13:20:31.422Z,34.40
2023-05-03T13:22:36.641Z,37.30
2023-05-03T13:24:42.275Z,33.30
2023-05-03T13:26:47.861Z,33.30
2023-05-03T13:28:52.940Z,32.40
2023-05-03T13:31:00.990Z,35.60
2023-05-03T13:33:06.265Z,35.60
2023-05-03T13:35:13.418Z,38.30
2023-05-03T13:37:20.098Z,33.50
2023-05-03T13:39:25.243Z,33.30
2023-05-03T13:41:30.795Z,30.50
2023-05-03T13:43:35.842Z,29.70
2023-05-03T13:45:41.141Z,29.10
2023-05-03T13:48:14.275Z,30.30
2023-05-03T13:50:15.087Z,34.00
2023-05-03T13:52:20.521Z,28.50
2023-05-03T13:54:25.673Z,28.80
2023-05-03T13:56:31.693Z,29.30
2023-05-03T13:58:37.964Z,31.60
2023-05-03T14:00:43.259Z,29.00
2023-05-03T14:02:51.974Z,32.20
2023-05-03T14:04:57.386Z,28.30
2023-05-03T14:07:03.315Z,29.50
2023-05-03T14:09:09.184Z,27.80
2023-05-03T14:11:18.013Z,32.70
2023-05-03T14:13:23.586Z,33.10
2023-05-03T14:15:29.013Z,29.40
2023-05-03T14:17:35.037Z,28.00
2023-05-03T14:19:43.151Z,26.90
2023-05-03T14:21:49.844Z,28.10
2023-05-03T14:23:57.146Z,27.90
2023-05-03T14:26:02.513Z,27.30
2023-05-03T14:28:08.034Z,27.10
2023-05-03T14:30:14.499Z,27.40
2023-05-03T14:32:20.076Z,28.10
2023-05-03T14:34:25.891Z,27.00
2023-05-03T14:36:36.347Z,30.40
2023-05-03T14:38:41.530Z,28.30
2023-05-03T14:40:46.684Z,27.70
2023-05-03T14:42:52.199Z,31.50
2023-05-03T14:44:57.848Z,29.80
2023-05-03T14:47:03.522Z,30.50
2023-05-03T14:49:09.075Z,26.10
2023-05-03T14:51:15.113Z,28.60
2023-05-03T14:53:23.112Z,28.60
2023-05-03T14:55:28.402Z,28.50
2023-05-03T14:57:34.067Z,29.70
2023-05-03T14:59:39.759Z,26.30
2023-05-03T15:01:44.844Z,28.10
2023-05-03T15:03:50.137Z,28.30
2023-05-03T15:05:55.153Z,27.80
2023-05-03T15:08:00.200Z,28.50
2023-05-03T15:10:10.259Z,26.20
2023-05-03T15:12:15.299Z,25.50
2023-05-03T15:14:20.646Z,27.40
2023-05-03T15:16:26.436Z,26.30
2023-05-03T15:18:31.490Z,27.20
2023-05-03T15:20:36.976Z,28.80
2023-05-03T15:22:42.246Z,25.80
2023-05-03T15:24:47.601Z,25.90
2023-05-03T15:26:55.220Z,25.40
2023-05-03T15:29:00.243Z,25.70
2023-05-03T15:31:05.301Z,27.40
2023-05-03T15:33:11.127Z,25.30
2023-05-03T15:35:16.613Z,24.70
2023-05-03T15:37:21.623Z,26.70
2023-05-03T15:39:26.683Z,24.50
2023-05-03T15:41:32.249Z,28.10
2023-05-03T15:43:39.871Z,26.30
2023-05-03T15:45:45.198Z,27.10
2023-05-03T15:47:50.362Z,28.30
2023-05-03T15:49:56.501Z,30.00
2023-05-03T15:52:01.642Z,27.60
2023-05-03T15:54:07.320Z,27.30
2023-05-03T15:56:12.333Z,27.00
2023-05-03T15:58:19.039Z,25.30
2023-05-03T16:00:28.062Z,27.80
2023-05-03T16:02:33.422Z,26.50
2023-05-03T16:04:39.917Z,26.50
2023-05-03T16:06:45.080Z,27.10
2023-05-03T16:08:50.125Z,27.10
2023-05-03T16:10:55.429Z,26.30
2023-05-03T16:13:00.487Z,26.70
2023-05-03T16:15:05.668Z,26.70
2023-05-03T16:17:15.591Z,27.20
2023-05-03T16:19:21.391Z,28.40
2023-05-03T16:21:27.092Z,28.00
2023-05-03T16:23:32.117Z,27.60
2023-05-03T16:25:37.129Z,27.50
2023-05-03T16:27:42.584Z,26.20
2023-05-03T16:29:47.681Z,26.50
2023-05-03T16:31:52.757Z,28.00
2023-05-03T16:34:00.574Z,28.00
2023-05-03T16:36:05.649Z,30.70
2023-05-03T16:38:10.688Z,28.00
2023-05-03T16:40:16.072Z,28.20
2023-05-03T16:42:21.835Z,30.90
2023-05-03T16:44:27.002Z,28.60
2023-05-03T16:46:34.039Z,28.70
2023-05-03T16:48:39.109Z,29.50
2023-05-03T16:50:48.437Z,30.30
2023-05-03T16:52:53.493Z,30.20
2023-05-03T16:54:58.543Z,31.50
2023-05-03T16:57:04.411Z,29.10
2023-05-03T16:59:09.433Z,31.00
2023-05-03T17:01:14.656Z,30.60
2023-05-03T17:03:19.882Z,31.60
2023-05-03T17:05:26.405Z,30.70
2023-05-03T17:07:34.146Z,31.10
2023-05-03T17:09:39.470Z,30.60
2023-05-03T17:11:44.487Z,30.50
2023-05-03T17:13:50.032Z,31.20
2023-05-03T17:15:55.060Z,30.30
2023-05-03T17:18:04.228Z,32.30
2023-05-03T17:20:12.992Z,32.10
2023-05-03T17:22:18.286Z,32.40
2023-05-03T17:24:27.592Z,32.40
2023-05-03T17:26:34.196Z,34.00
2023-05-03T17:28:40.248Z,32.20
2023-05-03T17:30:45.432Z,31.50
2023-05-03T17:32:50.458Z,32.60
2023-05-03T17:34:56.970Z,34.80
2023-05-03T17:37:02.206Z,36.30
2023-05-03T17:39:07.933Z,36.10
2023-05-03T17:41:15.544Z,36.50
2023-05-03T17:43:21.541Z,38.90
2023-05-03T17:45:28.771Z,38.20
2023-05-03T17:47:34.281Z,40.10
2023-05-03T17:49:39.373Z,40.00
2023-05-03T17:51:44.387Z,43.40
2023-05-03T17:53:49.639Z,42.40
2023-05-03T17:55:54.658Z,43.50
2023-05-03T17:58:03.135Z,44.40
2023-05-03T18:00:15.631Z,44.10
2023-05-03T18:02:21.792Z,45.50
2023-05-03T18:04:27.218Z,44.80
2023-05-03T18:06:32.632Z,46.60
2023-05-03T18:08:37.931Z,46.70
2023-05-03T18:10:45.312Z,47.10
2023-05-03T18:12:50.440Z,46.80
2023-05-03T18:14:59.709Z,47.80
2023-05-03T18:17:04.731Z,47.70
2023-05-03T18:19:10.099Z,48.80
2023-05-03T18:21:15.372Z,49.10
2023-05-03T18:23:20.404Z,49.50
2023-05-03T18:25:25.988Z,49.70
2023-05-03T18:27:31.495Z,49.90
2023-05-03T18:29:36.743Z,51.80
2023-05-03T18:31:44.988Z,50.70
2023-05-03T18:33:50.089Z,51.60
2023-05-03T18:35:56.141Z,51.20
2023-05-03T18:38:01.238Z,52.80
2023-05-03T18:40:07.475Z,52.70
2023-05-03T18:42:13.150Z,53.00
2023-05-03T18:44:18.416Z,52.20
2023-05-03T18:46:23.818Z,53.40
2023-05-03T18:48:31.583Z,54.80
2023-05-03T18:50:38.429Z,55.40
2023-05-03T18:52:43.847Z,56.10
2023-05-03T18:54:49.783Z,56.30
2023-05-03T18:56:55.497Z,57.70
2023-05-03T18:59:00.853Z,58.70
2023-05-03T19:01:06.881Z,60.40
2023-05-03T19:03:12.324Z,61.10
2023-05-03T19:05:20.172Z,59.80
2023-05-03T19:07:25.781Z,60.70
2023-05-03T19:09:30.856Z,62.20
2023-05-03T19:11:36.269Z,60.70
2023-05-03T19:13:42.293Z,59.60
2023-05-03T19:15:47.296Z,60.20
2023-05-03T19:17:52.302Z,60.20
2023-05-03T19:19:57.325Z,61.40
2023-05-03T19:22:05.728Z,62.10
2023-05-03T19:24:14.310Z,63.30
2023-05-03T19:26:19.316Z,63.40
2023-05-03T19:28:24.333Z,62.80
2023-05-03T19:30:29.353Z,63.10
2023-05-03T19:32:37.052Z,64.20
2023-05-03T19:34:42.235Z,63.30
2023-05-03T19:36:47.243Z,64.30
2023-05-03T19:38:54.824Z,66.20
2023-05-03T19:41:00.540Z,64.50
2023-05-03T19:43:06.651Z,65.50
2023-05-03T19:45:13.191Z,68.00
2023-05-03T19:47:18.193Z,68.40
2023-05-03T19:49:24.059Z,67.40
2023-05-03T19:51:29.528Z,69.80
2023-05-03T19:53:35.099Z,69.40
2023-05-03T19:55:42.739Z,69.60
2023-05-03T19:57:47.759Z,69.10
2023-05-03T19:59:52.942Z,70.00
2023-05-03T20:01:58.023Z,69.20
2023-05-03T20:04:03.556Z,68.70
2023-05-03T20:06:09.102Z,68.20
2023-05-03T20:08:14.625Z,68.60
2023-05-03T20:10:19.904Z,69.00
2023-05-03T20:12:27.577Z,69.90
2023-05-03T20:14:32.628Z,70.50
2023-05-03T20:16:39.363Z,70.60
2023-05-03T20:18:45.813Z,71.50
2023-05-03T20:20:50.907Z,69.80
2023-05-03T20:22:55.976Z,72.40
2023-05-03T20:25:01.117Z,71.20
2023-05-03T20:27:06.737Z,71.20
2023-05-03T20:29:14.583Z,70.50
2023-05-03T20:31:20.051Z,73.00
2023-05-03T20:33:25.093Z,74.10
2023-05-03T20:35:30.183Z,75.20
2023-05-03T20:37:36.424Z,75.20
2023-05-03T20:39:43.403Z,75.80
2023-05-03T20:41:48.522Z,76.60
2023-05-03T20:43:55.416Z,75.60
2023-05-03T20:46:04.053Z,77.40
2023-05-03T20:48:09.779Z,77.20
2023-05-03T20:50:15.043Z,77.20
2023-05-03T20:52:20.123Z,76.30
2023-05-03T20:54:25.166Z,76.40
2023-05-03T20:56:30.246Z,78.00
2023-05-03T20:58:35.465Z,77.50
2023-05-03T21:00:40.480Z,75.90
2023-05-03T21:02:53.364Z,78.10
2023-05-03T21:04:58.659Z,79.10
2023-05-03T21:07:03.979Z,78.80
2023-05-03T21:09:08.984Z,77.70
2023-05-03T21:11:13.992Z,78.70
2023-05-03T21:13:19.119Z,78.90
2023-05-03T21:15:24.212Z,79.90
2023-05-03T21:17:29.327Z,79.60
2023-05-03T21:19:36.957Z,80.10
2023-05-03T21:21:42.397Z,80.50
2023-05-03T21:23:47.605Z,79.90
2023-05-03T21:25:55.194Z,81.10
2023-05-03T21:28:01.107Z,80.90
2023-05-03T21:30:06.551Z,80.60
2023-05-03T21:32:11.785Z,80.80
2023-05-03T21:34:16.929Z,82.60
2023-05-03T21:36:24.663Z,81.30
2023-05-03T21:38:29.748Z,82.40
2023-05-03T21:40:34.827Z,82.80
2023-05-03T21:42:39.934Z,83.10
2023-05-03T21:44:44.942Z,83.50
2023-05-03T21:46:50.007Z,83.50
2023-05-03T21:48:55.105Z,83.90
2023-05-03T21:51:00.173Z,85.60
2023-05-03T21:53:07.945Z,85.70
2023-05-03T21:55:15.513Z,86.10
2023-05-03T21:57:20.756Z,86.80
2023-05-03T21:59:25.830Z,86.10
2023-05-03T22:01:31.622Z,86.40
2023-05-03T22:03:36.808Z,86.50
2023-05-03T22:05:43.286Z,86.20
2023-05-03T22:07:50.534Z,86.00
2023-05-03T22:09:58.151Z,86.70
2023-05-03T22:12:19.143Z,86.80
2023-05-03T22:14:27.584Z,87.20
2023-05-03T22:16:33.210Z,87.40
2023-05-03T22:18:38.697Z,87.90
2023-05-03T22:20:43.851Z,87.60
2023-05-03T22:22:49.110Z,88.00
2023-05-03T22:24:54.137Z,87.50
2023-05-03T22:27:02.543Z,88.10
2023-05-03T22:29:08.113Z,89.00
2023-05-03T22:31:13.732Z,89.00
2023-05-03T22:33:19.288Z,88.40
2023-05-03T22:35:24.330Z,89.40
2023-05-03T22:37:29.616Z,88.70
2023-05-03T22:39:34.636Z,88.80
2023-05-03T22:41:39.937Z,89.10
2023-05-03T22:43:47.866Z,89.70
2023-05-03T22:45:52.916Z,89.70
2023-05-03T22:47:58.749Z,89.60
2023-05-03T22:50:04.130Z,89.10
2023-05-03T22:52:09.349Z,89.30
2023-05-03T22:54:14.597Z,90.10
2023-05-03T22:56:19.641Z,89.90
2023-05-03T22:58:26.072Z,89.40
2023-05-03T23:00:34.149Z,88.40
2023-05-03T23:02:39.296Z,88.80
2023-05-03T23:04:44.768Z,89.40
2023-05-03T23:06:49.820Z,88.90
2023-05-03T23:08:55.093Z,90.40
2023-05-03T23:11:00.281Z,89.90
2023-05-03T23:13:05.453Z,89.70
2023-05-03T23:15:12.280Z,90.20
2023-05-03T23:17:20.024Z,89.20
2023-05-03T23:19:25.035Z,90.80
2023-05-03T23:21:30.335Z,90.50
2023-05-03T23:23:35.658Z,90.30
2023-05-03T23:25:40.931Z,90.40
2023-05-03T23:27:46.446Z,89.00
2023-05-03T23:29:53.383Z,90.70
2023-05-03T23:31:58.910Z,89.90
2023-05-03T23:34:07.687Z,90.60
2023-05-03T23:36:13.165Z,90.20
2023-05-03T23:38:18.289Z,90.10
2023-05-03T23:40:24.288Z,91.10
2023-05-03T23:42:29.342Z,90.00
2023-05-03T23:44:46.918Z,90.30
2023-05-03T23:46:59.642Z,91.00
2023-05-03T23:49:07.680Z,90.00
2023-05-03T23:51:13.211Z,90.50
2023-05-03T23:53:18.238Z,90.60
2023-05-03T23:55:24.020Z,90.40
2023-05-03T23:57:29.062Z,90.20
2023-05-03T23:59:34.108Z,90.10
